sensor_id;sensor_type;location;lat;lon;timestamp;pressure;altitude;pressure_sealevel;temperature;humidity
39739;BME280;25422;48.286;8.484;2022-10-24T00:02:04;93864.69;;;12.84;100.00
39739;BME280;25422;48.286;8.484;2022-10-24T00:04:30;93868.19;;;12.69;100.00
39739;BME280;25422;48.286;8.484;2022-10-24T00:06:59;93861.25;;;12.55;100.00
39739;BME280;25422;48.286;8.484;2022-10-24T00:09:24;93859.50;;;12.40;100.00
39739;BME280;25422;48.286;8.484;2022-10-24T00:11:49;93864.22;;;12.30;100.00
39739;BME280;25422;48.286;8.484;2022-10-24T00:14:15;93865.53;;;12.19;100.00
39739;BME280;25422;48.286;8.484;2022-10-24T00:16:40;93868.66;;;12.08;100.00
39739;BME280;25422;48.286;8.484;2022-10-24T00:19:06;93858.56;;;12.05;100.00
39739;BME280;25422;48.286;8.484;2022-10-24T00:21:31;93860.00;;;12.07;100.00
39739;BME280;25422;48.286;8.484;2022-10-24T00:23:57;93850.56;;;12.13;100.00
39739;BME280;25422;48.286;8.484;2022-10-24T00:26:22;93854.69;;;12.22;100.00
39739;BME280;25422;48.286;8.484;2022-10-24T00:28:48;93852.75;;;12.31;100.00
39739;BME280;25422;48.286;8.484;2022-10-24T00:31:16;93856.53;;;12.50;100.00
39739;BME280;25422;48.286;8.484;2022-10-24T00:33:42;93858.47;;;12.63;100.00
39739;BME280;25422;48.286;8.484;2022-10-24T00:36:16;93863.34;;;12.66;100.00
39739;BME280;25422;48.286;8.484;2022-10-24T00:38:42;93870.56;;;12.64;100.00
39739;BME280;25422;48.286;8.484;2022-10-24T00:41:13;93869.13;;;12.61;100.00
39739;BME280;25422;48.286;8.484;2022-10-24T00:43:39;93859.44;;;12.84;100.00
39739;BME280;25422;48.286;8.484;2022-10-24T00:46:05;93859.94;;;13.01;100.00
39739;BME280;25422;48.286;8.484;2022-10-24T00:51:05;93868.03;;;13.34;100.00
39739;BME280;25422;48.286;8.484;2022-10-24T00:53:34;93868.31;;;13.46;100.00
39739;BME280;25422;48.286;8.484;2022-10-24T00:56:04;93867.53;;;13.52;100.00
39739;BME280;25422;48.286;8.484;2022-10-24T00:58:32;93852.00;;;13.57;100.00
39739;BME280;25422;48.286;8.484;2022-10-24T01:00:59;93851.56;;;13.54;100.00
39739;BME280;25422;48.286;8.484;2022-10-24T01:03:24;93848.56;;;13.57;100.00
39739;BME280;25422;48.286;8.484;2022-10-24T01:08:40;93843.09;;;13.58;100.00
39739;BME280;25422;48.286;8.484;2022-10-24T01:16:46;93849.84;;;13.74;100.00
39739;BME280;25422;48.286;8.484;2022-10-24T01:20:12;93857.78;;;13.88;100.00
39739;BME280;25422;48.286;8.484;2022-10-24T01:22:56;93880.91;;;14.12;100.00
39739;BME280;25422;48.286;8.484;2022-10-24T01:25:46;93890.91;;;13.82;100.00
39739;BME280;25422;48.286;8.484;2022-10-24T01:28:21;93892.53;;;13.41;100.00
39739;BME280;25422;48.286;8.484;2022-10-24T01:31:00;93916.22;;;13.20;100.00
39739;BME280;25422;48.286;8.484;2022-10-24T01:33:39;93885.41;;;13.00;100.00
39739;BME280;25422;48.286;8.484;2022-10-24T01:36:20;93889.16;;;12.91;100.00
39739;BME280;25422;48.286;8.484;2022-10-24T01:38:58;93892.97;;;12.88;100.00
39739;BME280;25422;48.286;8.484;2022-10-24T01:41:27;93877.16;;;12.81;100.00
39739;BME280;25422;48.286;8.484;2022-10-24T01:44:08;93877.13;;;12.75;100.00
39739;BME280;25422;48.286;8.484;2022-10-24T01:46:41;93882.75;;;12.72;100.00
39739;BME280;25422;48.286;8.484;2022-10-24T01:49:12;93871.22;;;12.66;100.00
39739;BME280;25422;48.286;8.484;2022-10-24T01:51:39;93882.91;;;12.63;100.00
39739;BME280;25422;48.286;8.484;2022-10-24T01:54:06;93888.75;;;12.65;100.00
39739;BME280;25422;48.286;8.484;2022-10-24T01:56:33;93883.50;;;12.65;100.00
39739;BME280;25422;48.286;8.484;2022-10-24T01:59:07;93877.06;;;12.68;100.00
39739;BME280;25422;48.286;8.484;2022-10-24T02:01:34;93863.34;;;12.66;100.00
39739;BME280;25422;48.286;8.484;2022-10-24T02:04:03;93862.84;;;12.56;100.00
39739;BME280;25422;48.286;8.484;2022-10-24T02:06:34;93860.41;;;12.54;100.00
39739;BME280;25422;48.286;8.484;2022-10-24T02:09:07;93861.47;;;12.60;100.00
39739;BME280;25422;48.286;8.484;2022-10-24T02:11:35;93852.34;;;12.56;100.00
39739;BME280;25422;48.286;8.484;2022-10-24T02:14:19;93858.78;;;12.53;100.00
39739;BME280;25422;48.286;8.484;2022-10-24T02:16:48;93865.59;;;12.47;100.00
39739;BME280;25422;48.286;8.484;2022-10-24T02:19:14;93880.94;;;12.44;100.00
39739;BME280;25422;48.286;8.484;2022-10-24T02:24:31;93860.00;;;12.29;100.00
39739;BME280;25422;48.286;8.484;2022-10-24T02:29:37;93834.63;;;12.14;100.00
39739;BME280;25422;48.286;8.484;2022-10-24T02:32:07;93836.00;;;12.10;100.00
39739;BME280;25422;48.286;8.484;2022-10-24T02:34:34;93836.41;;;12.07;100.00
39739;BME280;25422;48.286;8.484;2022-10-24T02:37:03;93840.00;;;12.06;100.00
39739;BME280;25422;48.286;8.484;2022-10-24T02:39:30;93828.69;;;12.06;100.00
39739;BME280;25422;48.286;8.484;2022-10-24T02:41:57;93832.88;;;12.00;100.00
39739;BME280;25422;48.286;8.484;2022-10-24T02:44:24;93837.41;;;11.91;100.00
39739;BME280;25422;48.286;8.484;2022-10-24T02:46:53;93845.81;;;11.87;100.00
39739;BME280;25422;48.286;8.484;2022-10-24T02:49:20;93846.84;;;11.86;100.00
39739;BME280;25422;48.286;8.484;2022-10-24T02:51:46;93847.44;;;11.88;100.00
39739;BME280;25422;48.286;8.484;2022-10-24T02:54:13;93854.94;;;11.91;100.00
39739;BME280;25422;48.286;8.484;2022-10-24T02:56:43;93852.06;;;11.86;100.00
39739;BME280;25422;48.286;8.484;2022-10-24T02:59:10;93856.69;;;11.84;100.00
39739;BME280;25422;48.286;8.484;2022-10-24T03:01:35;93863.94;;;11.81;100.00
39739;BME280;25422;48.286;8.484;2022-10-24T03:04:01;93858.84;;;11.80;100.00
39739;BME280;25422;48.286;8.484;2022-10-24T03:06:26;93850.38;;;11.78;100.00
39739;BME280;25422;48.286;8.484;2022-10-24T03:08:52;93840.06;;;11.76;100.00
39739;BME280;25422;48.286;8.484;2022-10-24T03:11:17;93832.22;;;11.76;100.00
39739;BME280;25422;48.286;8.484;2022-10-24T03:13:43;93824.53;;;11.75;100.00
39739;BME280;25422;48.286;8.484;2022-10-24T03:16:08;93823.44;;;11.69;100.00
39739;BME280;25422;48.286;8.484;2022-10-24T03:18:33;93818.84;;;11.71;100.00
39739;BME280;25422;48.286;8.484;2022-10-24T03:20:59;93828.88;;;11.68;100.00
39739;BME280;25422;48.286;8.484;2022-10-24T03:23:24;93828.69;;;11.69;100.00
39739;BME280;25422;48.286;8.484;2022-10-24T03:25:55;93819.66;;;11.72;100.00
39739;BME280;25422;48.286;8.484;2022-10-24T03:28:20;93834.56;;;11.71;100.00
39739;BME280;25422;48.286;8.484;2022-10-24T03:30:46;93845.66;;;11.73;100.00
39739;BME280;25422;48.286;8.484;2022-10-24T03:33:11;93849.13;;;11.74;100.00
39739;BME280;25422;48.286;8.484;2022-10-24T03:35:39;93844.69;;;11.74;100.00
39739;BME280;25422;48.286;8.484;2022-10-24T03:38:05;93855.16;;;11.74;100.00
39739;BME280;25422;48.286;8.484;2022-10-24T03:40:33;93860.41;;;11.74;100.00
39739;BME280;25422;48.286;8.484;2022-10-24T03:42:59;93869.09;;;11.75;100.00
39739;BME280;25422;48.286;8.484;2022-10-24T03:45:25;93877.13;;;11.73;100.00
39739;BME280;25422;48.286;8.484;2022-10-24T03:47:50;93875.13;;;11.75;100.00
39739;BME280;25422;48.286;8.484;2022-10-24T03:50:16;93867.09;;;11.77;100.00
39739;BME280;25422;48.286;8.484;2022-10-24T03:52:41;93862.28;;;11.80;100.00
39739;BME280;25422;48.286;8.484;2022-10-24T03:55:07;93854.44;;;11.80;100.00
39739;BME280;25422;48.286;8.484;2022-10-24T03:57:33;93862.91;;;11.82;100.00
39739;BME280;25422;48.286;8.484;2022-10-24T03:59:58;93865.78;;;11.88;100.00
39739;BME280;25422;48.286;8.484;2022-10-24T04:02:23;93871.69;;;11.90;100.00
39739;BME280;25422;48.286;8.484;2022-10-24T04:04:49;93878.53;;;11.91;100.00
39739;BME280;25422;48.286;8.484;2022-10-24T04:07:14;93878.03;;;11.95;100.00
39739;BME280;25422;48.286;8.484;2022-10-24T04:09:40;93882.44;;;11.95;100.00
39739;BME280;25422;48.286;8.484;2022-10-24T04:12:05;93893.56;;;11.97;100.00
39739;BME280;25422;48.286;8.484;2022-10-24T04:14:31;93894.81;;;12.01;100.00
39739;BME280;25422;48.286;8.484;2022-10-24T04:16:56;93898.22;;;12.02;100.00
39739;BME280;25422;48.286;8.484;2022-10-24T04:19:22;93891.81;;;12.04;100.00
39739;BME280;25422;48.286;8.484;2022-10-24T04:21:48;93888.19;;;12.05;100.00
39739;BME280;25422;48.286;8.484;2022-10-24T04:24:14;93887.75;;;12.02;100.00
39739;BME280;25422;48.286;8.484;2022-10-24T04:26:39;93866.97;;;12.00;100.00
39739;BME280;25422;48.286;8.484;2022-10-24T04:29:05;93845.56;;;11.96;100.00
39739;BME280;25422;48.286;8.484;2022-10-24T04:31:30;93842.13;;;11.96;100.00
39739;BME280;25422;48.286;8.484;2022-10-24T04:33:56;93836.88;;;11.96;100.00
39739;BME280;25422;48.286;8.484;2022-10-24T04:36:21;93842.94;;;11.96;100.00
39739;BME280;25422;48.286;8.484;2022-10-24T04:38:47;93846.06;;;11.92;100.00
39739;BME280;25422;48.286;8.484;2022-10-24T04:41:12;93818.63;;;11.88;100.00
39739;BME280;25422;48.286;8.484;2022-10-24T04:43:39;93800.84;;;11.83;100.00
39739;BME280;25422;48.286;8.484;2022-10-24T04:46:05;93790.16;;;11.85;100.00
39739;BME280;25422;48.286;8.484;2022-10-24T04:48:30;93797.38;;;11.82;100.00
39739;BME280;25422;48.286;8.484;2022-10-24T04:50:56;93816.38;;;11.85;100.00
39739;BME280;25422;48.286;8.484;2022-10-24T04:53:21;93836.97;;;11.88;100.00
39739;BME280;25422;48.286;8.484;2022-10-24T04:55:47;93861.31;;;11.81;100.00
39739;BME280;25422;48.286;8.484;2022-10-24T04:58:12;93881.38;;;11.74;100.00
39739;BME280;25422;48.286;8.484;2022-10-24T05:00:38;93884.38;;;11.71;100.00
39739;BME280;25422;48.286;8.484;2022-10-24T05:03:04;93889.78;;;11.70;100.00
39739;BME280;25422;48.286;8.484;2022-10-24T05:05:29;93884.28;;;11.64;100.00
39739;BME280;25422;48.286;8.484;2022-10-24T05:07:56;93875.25;;;11.67;100.00
39739;BME280;25422;48.286;8.484;2022-10-24T05:10:21;93878.56;;;11.76;100.00
39739;BME280;25422;48.286;8.484;2022-10-24T05:12:46;93876.19;;;11.81;100.00
39739;BME280;25422;48.286;8.484;2022-10-24T05:15:12;93876.19;;;11.81;100.00
39739;BME280;25422;48.286;8.484;2022-10-24T05:17:39;93877.56;;;11.77;100.00
39739;BME280;25422;48.286;8.484;2022-10-24T05:20:05;93873.25;;;11.69;100.00
39739;BME280;25422;48.286;8.484;2022-10-24T05:22:31;93871.06;;;11.73;100.00
39739;BME280;25422;48.286;8.484;2022-10-24T05:24:57;93873.25;;;11.69;100.00
39739;BME280;25422;48.286;8.484;2022-10-24T05:27:22;93883.28;;;11.66;100.00
39739;BME280;25422;48.286;8.484;2022-10-24T05:29:51;93887.69;;;11.65;100.00
39739;BME280;25422;48.286;8.484;2022-10-24T05:32:16;93892.06;;;11.58;100.00
39739;BME280;25422;48.286;8.484;2022-10-24T05:34:42;93882.38;;;11.58;100.00
39739;BME280;25422;48.286;8.484;2022-10-24T05:37:07;93876.06;;;11.53;100.00
39739;BME280;25422;48.286;8.484;2022-10-24T05:39:33;93877.69;;;11.54;100.00
39739;BME280;25422;48.286;8.484;2022-10-24T05:41:58;93881.50;;;11.51;100.00
39739;BME280;25422;48.286;8.484;2022-10-24T05:44:24;93892.16;;;11.50;100.00
39739;BME280;25422;48.286;8.484;2022-10-24T05:46:49;93892.72;;;11.45;100.00
39739;BME280;25422;48.286;8.484;2022-10-24T05:49:15;93890.81;;;11.39;100.00
39739;BME280;25422;48.286;8.484;2022-10-24T05:51:40;93877.72;;;11.39;100.00
39739;BME280;25422;48.286;8.484;2022-10-24T05:54:06;93870.84;;;11.38;100.00
39739;BME280;25422;48.286;8.484;2022-10-24T05:56:31;93859.94;;;11.34;100.00
39739;BME280;25422;48.286;8.484;2022-10-24T05:58:57;93865.50;;;11.31;100.00
39739;BME280;25422;48.286;8.484;2022-10-24T06:01:23;93870.13;;;11.29;100.00
39739;BME280;25422;48.286;8.484;2022-10-24T06:03:48;93865.44;;;11.24;100.00
39739;BME280;25422;48.286;8.484;2022-10-24T06:06:14;93862.66;;;11.26;100.00
39739;BME280;25422;48.286;8.484;2022-10-24T06:08:40;93840.16;;;11.32;100.00
39739;BME280;25422;48.286;8.484;2022-10-24T06:11:08;93849.28;;;11.36;100.00
39739;BME280;25422;48.286;8.484;2022-10-24T06:13:35;93862.97;;;11.38;100.00
39739;BME280;25422;48.286;8.484;2022-10-24T06:16:00;93854.84;;;11.33;100.00
39739;BME280;25422;48.286;8.484;2022-10-24T06:18:26;93864.91;;;11.29;100.00
39739;BME280;25422;48.286;8.484;2022-10-24T06:20:52;93868.50;;;11.28;100.00
39739;BME280;25422;48.286;8.484;2022-10-24T06:23:18;93879.97;;;11.27;100.00
39739;BME280;25422;48.286;8.484;2022-10-24T06:25:43;93863.91;;;11.30;100.00
39739;BME280;25422;48.286;8.484;2022-10-24T06:28:08;93855.03;;;11.31;100.00
39739;BME280;25422;48.286;8.484;2022-10-24T06:30:38;93867.53;;;11.29;100.00
39739;BME280;25422;48.286;8.484;2022-10-24T06:33:04;93871.78;;;11.30;100.00
39739;BME280;25422;48.286;8.484;2022-10-24T06:35:29;93855.88;;;11.32;100.00
39739;BME280;25422;48.286;8.484;2022-10-24T06:37:55;93866.63;;;11.37;100.00
39739;BME280;25422;48.286;8.484;2022-10-24T06:40:20;93864.50;;;11.47;100.00
39739;BME280;25422;48.286;8.484;2022-10-24T06:42:45;93875.63;;;11.49;100.00
39739;BME280;25422;48.286;8.484;2022-10-24T06:45:12;93867.88;;;11.56;100.00
39739;BME280;25422;48.286;8.484;2022-10-24T06:47:37;93883.94;;;11.53;100.00
39739;BME280;25422;48.286;8.484;2022-10-24T06:50:03;93880.97;;;11.56;100.00
39739;BME280;25422;48.286;8.484;2022-10-24T06:52:29;93884.19;;;11.58;100.00
39739;BME280;25422;48.286;8.484;2022-10-24T06:54:54;93889.91;;;11.61;100.00
39739;BME280;25422;48.286;8.484;2022-10-24T06:57:20;93905.44;;;11.63;100.00
39739;BME280;25422;48.286;8.484;2022-10-24T06:59:46;93921.53;;;11.60;100.00
39739;BME280;25422;48.286;8.484;2022-10-24T07:02:12;93930.19;;;11.60;100.00
39739;BME280;25422;48.286;8.484;2022-10-24T07:04:38;93927.94;;;11.57;100.00
39739;BME280;25422;48.286;8.484;2022-10-24T07:07:04;93927.75;;;11.59;100.00
39739;BME280;25422;48.286;8.484;2022-10-24T07:09:29;93906.53;;;11.54;100.00
39739;BME280;25422;48.286;8.484;2022-10-24T07:11:55;93898.47;;;11.70;100.00
39739;BME280;25422;48.286;8.484;2022-10-24T07:14:20;93925.13;;;11.74;100.00
39739;BME280;25422;48.286;8.484;2022-10-24T07:16:46;93940.94;;;11.66;100.00
39739;BME280;25422;48.286;8.484;2022-10-24T07:19:11;93945.81;;;11.54;100.00
39739;BME280;25422;48.286;8.484;2022-10-24T07:21:37;93956.38;;;11.45;100.00
39739;BME280;25422;48.286;8.484;2022-10-24T07:24:03;93960.34;;;11.41;100.00
39739;BME280;25422;48.286;8.484;2022-10-24T07:26:29;93965.97;;;11.38;100.00
39739;BME280;25422;48.286;8.484;2022-10-24T07:28:56;93933.09;;;11.36;100.00
39739;BME280;25422;48.286;8.484;2022-10-24T07:31:27;93920.59;;;11.38;100.00
39739;BME280;25422;48.286;8.484;2022-10-24T07:33:53;93928.13;;;11.41;100.00
39739;BME280;25422;48.286;8.484;2022-10-24T07:36:21;93923.69;;;11.41;100.00
39739;BME280;25422;48.286;8.484;2022-10-24T07:38:48;93921.34;;;11.46;100.00
39739;BME280;25422;48.286;8.484;2022-10-24T07:41:14;93919.34;;;11.48;100.00
39739;BME280;25422;48.286;8.484;2022-10-24T07:43:39;93923.22;;;11.53;100.00
39739;BME280;25422;48.286;8.484;2022-10-24T07:46:07;93922.06;;;11.55;100.00
39739;BME280;25422;48.286;8.484;2022-10-24T07:48:33;93920.50;;;11.61;100.00
39739;BME280;25422;48.286;8.484;2022-10-24T07:51:04;93920.16;;;11.64;100.00
39739;BME280;25422;48.286;8.484;2022-10-24T07:53:29;93929.72;;;11.72;100.00
39739;BME280;25422;48.286;8.484;2022-10-24T07:55:57;93922.31;;;11.75;100.00
39739;BME280;25422;48.286;8.484;2022-10-24T07:58:24;93915.09;;;11.77;100.00
39739;BME280;25422;48.286;8.484;2022-10-24T08:00:49;93920.22;;;11.86;100.00
39739;BME280;25422;48.286;8.484;2022-10-24T08:03:14;93925.56;;;11.92;100.00
39739;BME280;25422;48.286;8.484;2022-10-24T08:05:40;93933.06;;;11.95;100.00
39739;BME280;25422;48.286;8.484;2022-10-24T08:08:06;93946.34;;;11.94;100.00
39739;BME280;25422;48.286;8.484;2022-10-24T08:10:32;93934.22;;;11.93;100.00
39739;BME280;25422;48.286;8.484;2022-10-24T08:12:57;93943.72;;;11.94;100.00
39739;BME280;25422;48.286;8.484;2022-10-24T08:15:23;93931.31;;;11.88;100.00
39739;BME280;25422;48.286;8.484;2022-10-24T08:17:54;93929.69;;;11.87;100.00
39739;BME280;25422;48.286;8.484;2022-10-24T08:20:20;93945.41;;;11.87;100.00
39739;BME280;25422;48.286;8.484;2022-10-24T08:22:48;93942.81;;;11.87;100.00
39739;BME280;25422;48.286;8.484;2022-10-24T08:25:14;93922.22;;;11.84;100.00
39739;BME280;25422;48.286;8.484;2022-10-24T08:27:41;93925.47;;;11.86;100.00
39739;BME280;25422;48.286;8.484;2022-10-24T08:30:07;93935.03;;;11.78;100.00
39739;BME280;25422;48.286;8.484;2022-10-24T08:32:34;93938.69;;;11.77;100.00
39739;BME280;25422;48.286;8.484;2022-10-24T08:35:00;93938.22;;;11.74;100.00
39739;BME280;25422;48.286;8.484;2022-10-24T08:37:26;93941.03;;;11.72;100.00
39739;BME280;25422;48.286;8.484;2022-10-24T08:39:51;93935.78;;;11.72;100.00
39739;BME280;25422;48.286;8.484;2022-10-24T08:42:21;93936.41;;;11.74;100.00
39739;BME280;25422;48.286;8.484;2022-10-24T08:44:47;93940.56;;;11.69;100.00
39739;BME280;25422;48.286;8.484;2022-10-24T08:52:54;93943.00;;;11.70;100.00
39739;BME280;25422;48.286;8.484;2022-10-24T08:55:29;93942.38;;;11.68;100.00
39739;BME280;25422;48.286;8.484;2022-10-24T08:57:59;93954.47;;;11.69;100.00
39739;BME280;25422;48.286;8.484;2022-10-24T09:00:29;93955.13;;;11.71;100.00
39739;BME280;25422;48.286;8.484;2022-10-24T09:03:03;93960.97;;;11.73;100.00
39739;BME280;25422;48.286;8.484;2022-10-24T09:05:39;93955.84;;;11.65;100.00
39739;BME280;25422;48.286;8.484;2022-10-24T09:08:20;93966.59;;;11.70;100.00
39739;BME280;25422;48.286;8.484;2022-10-24T09:11:10;93962.53;;;11.68;100.00
39739;BME280;25422;48.286;8.484;2022-10-24T09:13:38;93970.03;;;11.71;100.00
39739;BME280;25422;48.286;8.484;2022-10-24T09:16:04;93982.97;;;11.72;100.00
39739;BME280;25422;48.286;8.484;2022-10-24T09:18:36;93981.50;;;11.70;100.00
39739;BME280;25422;48.286;8.484;2022-10-24T09:21:05;93969.56;;;11.67;100.00
39739;BME280;25422;48.286;8.484;2022-10-24T09:23:33;93976.97;;;11.63;100.00
39739;BME280;25422;48.286;8.484;2022-10-24T09:26:00;93989.97;;;11.57;100.00
39739;BME280;25422;48.286;8.484;2022-10-24T09:28:27;93982.78;;;11.59;100.00
39739;BME280;25422;48.286;8.484;2022-10-24T09:30:53;93988.00;;;11.59;100.00
39739;BME280;25422;48.286;8.484;2022-10-24T09:33:26;93985.56;;;11.57;100.00
39739;BME280;25422;48.286;8.484;2022-10-24T09:35:55;93972.81;;;11.54;100.00
39739;BME280;25422;48.286;8.484;2022-10-24T09:38:33;93976.88;;;11.57;100.00
39739;BME280;25422;48.286;8.484;2022-10-24T09:41:02;93979.50;;;11.57;100.00
39739;BME280;25422;48.286;8.484;2022-10-24T09:43:59;93985.84;;;11.62;100.00
39739;BME280;25422;48.286;8.484;2022-10-24T09:46:34;93986.47;;;11.64;100.00
39739;BME280;25422;48.286;8.484;2022-10-24T09:51:39;93984.13;;;11.70;100.00
39739;BME280;25422;48.286;8.484;2022-10-24T09:56:46;93998.78;;;11.79;100.00
39739;BME280;25422;48.286;8.484;2022-10-24T09:59:39;93991.34;;;11.82;100.00
39739;BME280;25422;48.286;8.484;2022-10-24T10:02:28;93995.16;;;11.95;100.00
39739;BME280;25422;48.286;8.484;2022-10-24T10:07:31;93983.22;;;12.07;100.00
39739;BME280;25422;48.286;8.484;2022-10-24T10:10:00;93982.47;;;12.13;100.00
39739;BME280;25422;48.286;8.484;2022-10-24T10:15:03;94002.94;;;12.18;100.00
39739;BME280;25422;48.286;8.484;2022-10-24T10:17:48;94005.63;;;12.10;100.00
39739;BME280;25422;48.286;8.484;2022-10-24T10:20:29;94033.22;;;12.06;100.00
39739;BME280;25422;48.286;8.484;2022-10-24T10:23:14;94022.03;;;11.97;100.00
39739;BME280;25422;48.286;8.484;2022-10-24T10:25:40;94011.22;;;11.92;100.00
39739;BME280;25422;48.286;8.484;2022-10-24T10:28:18;94019.00;;;11.85;100.00
39739;BME280;25422;48.286;8.484;2022-10-24T10:30:49;94008.88;;;11.82;100.00
39739;BME280;25422;48.286;8.484;2022-10-24T10:33:23;94038.88;;;11.79;100.00
39739;BME280;25422;48.286;8.484;2022-10-24T10:35:59;94064.91;;;11.81;100.00
39739;BME280;25422;48.286;8.484;2022-10-24T10:44:13;94036.53;;;11.70;100.00
39739;BME280;25422;48.286;8.484;2022-10-24T10:52:01;94022.78;;;11.68;100.00
39739;BME280;25422;48.286;8.484;2022-10-24T10:57:41;94028.13;;;11.74;100.00
39739;BME280;25422;48.286;8.484;2022-10-24T11:00:27;94019.75;;;11.79;100.00
39739;BME280;25422;48.286;8.484;2022-10-24T11:05:36;94031.91;;;11.87;100.00
39739;BME280;25422;48.286;8.484;2022-10-24T11:08:37;94032.19;;;11.92;100.00
39739;BME280;25422;48.286;8.484;2022-10-24T11:11:12;94024.97;;;11.94;100.00
39739;BME280;25422;48.286;8.484;2022-10-24T11:13:47;94026.88;;;12.00;100.00
39739;BME280;25422;48.286;8.484;2022-10-24T11:16:24;94020.00;;;11.99;100.00
39739;BME280;25422;48.286;8.484;2022-10-24T11:18:55;94021.13;;;12.05;100.00
39739;BME280;25422;48.286;8.484;2022-10-24T11:21:24;94019.00;;;12.15;100.00
39739;BME280;25422;48.286;8.484;2022-10-24T11:23:58;94012.22;;;12.21;100.00
39739;BME280;25422;48.286;8.484;2022-10-24T11:26:30;94018.72;;;12.25;100.00
39739;BME280;25422;48.286;8.484;2022-10-24T11:29:14;94018.56;;;12.26;100.00
39739;BME280;25422;48.286;8.484;2022-10-24T11:31:47;93998.28;;;12.35;100.00
39739;BME280;25422;48.286;8.484;2022-10-24T11:37:06;93988.91;;;12.47;100.00
39739;BME280;25422;48.286;8.484;2022-10-24T11:39:46;93992.78;;;12.52;100.00
39739;BME280;25422;48.286;8.484;2022-10-24T11:42:29;93980.78;;;12.42;100.00
39739;BME280;25422;48.286;8.484;2022-10-24T11:45:08;93976.47;;;12.35;100.00
39739;BME280;25422;48.286;8.484;2022-10-24T11:52:48;93968.03;;;12.39;100.00
39739;BME280;25422;48.286;8.484;2022-10-24T11:55:26;93972.19;;;12.48;100.00
39739;BME280;25422;48.286;8.484;2022-10-24T11:57:57;93965.94;;;12.50;100.00
39739;BME280;25422;48.286;8.484;2022-10-24T12:00:31;93969.38;;;12.50;100.00
39739;BME280;25422;48.286;8.484;2022-10-24T12:03:24;93967.53;;;12.51;100.00
39739;BME280;25422;48.286;8.484;2022-10-24T12:09:04;93975.13;;;12.60;100.00
39739;BME280;25422;48.286;8.484;2022-10-24T12:17:09;93964.94;;;12.72;100.00
39739;BME280;25422;48.286;8.484;2022-10-24T12:19:40;93966.69;;;12.87;100.00
39739;BME280;25422;48.286;8.484;2022-10-24T12:22:15;93970.81;;;12.96;100.00
39739;BME280;25422;48.286;8.484;2022-10-24T12:24:41;93965.91;;;13.14;100.00
39739;BME280;25422;48.286;8.484;2022-10-24T12:27:20;93966.00;;;13.28;100.00
39739;BME280;25422;48.286;8.484;2022-10-24T12:32:43;93966.19;;;13.55;100.00
39739;BME280;25422;48.286;8.484;2022-10-24T12:37:58;93973.38;;;13.68;100.00
39739;BME280;25422;48.286;8.484;2022-10-24T12:40:50;93968.94;;;13.75;100.00
39739;BME280;25422;48.286;8.484;2022-10-24T12:43:36;93958.84;;;13.72;100.00
39739;BME280;25422;48.286;8.484;2022-10-24T12:51:29;93962.19;;;13.59;100.00
39739;BME280;25422;48.286;8.484;2022-10-24T12:59:23;93946.88;;;13.69;100.00
39739;BME280;25422;48.286;8.484;2022-10-24T13:07:57;93957.72;;;13.94;100.00
39739;BME280;25422;48.286;8.484;2022-10-24T13:10:50;93955.50;;;13.98;100.00
39739;BME280;25422;48.286;8.484;2022-10-24T13:16:12;93959.88;;;13.77;100.00
39739;BME280;25422;48.286;8.484;2022-10-24T13:19:23;93956.03;;;13.80;100.00
39739;BME280;25422;48.286;8.484;2022-10-24T13:21:50;93950.31;;;13.70;100.00
39739;BME280;25422;48.286;8.484;2022-10-24T13:26:46;93956.16;;;13.65;100.00
39739;BME280;25422;48.286;8.484;2022-10-24T13:31:49;93955.84;;;13.81;100.00
39739;BME280;25422;48.286;8.484;2022-10-24T13:34:26;93974.06;;;13.83;100.00
39739;BME280;25422;48.286;8.484;2022-10-24T13:36:59;93973.66;;;13.86;100.00
39739;BME280;25422;48.286;8.484;2022-10-24T13:39:29;93971.00;;;13.79;100.00
39739;BME280;25422;48.286;8.484;2022-10-24T13:42:00;93975.66;;;13.77;100.00
39739;BME280;25422;48.286;8.484;2022-10-24T13:44:28;93973.22;;;13.76;100.00
39739;BME280;25422;48.286;8.484;2022-10-24T13:47:00;93961.34;;;13.52;100.00
39739;BME280;25422;48.286;8.484;2022-10-24T13:49:31;93965.34;;;13.47;100.00
39739;BME280;25422;48.286;8.484;2022-10-24T13:55:02;93959.06;;;13.42;100.00
39739;BME280;25422;48.286;8.484;2022-10-24T13:57:33;93955.25;;;13.44;100.00
39739;BME280;25422;48.286;8.484;2022-10-24T14:00:15;93956.69;;;13.54;100.00
39739;BME280;25422;48.286;8.484;2022-10-24T14:02:43;93955.66;;;13.48;100.00
39739;BME280;25422;48.286;8.484;2022-10-24T14:05:25;93962.22;;;13.65;100.00
39739;BME280;25422;48.286;8.484;2022-10-24T14:07:52;93960.84;;;13.70;100.00
39739;BME280;25422;48.286;8.484;2022-10-24T14:10:18;93964.41;;;13.97;100.00
39739;BME280;25422;48.286;8.484;2022-10-24T14:12:45;93964.78;;;13.94;100.00
39739;BME280;25422;48.286;8.484;2022-10-24T14:15:19;93962.16;;;13.94;100.00
39739;BME280;25422;48.286;8.484;2022-10-24T14:18:00;93962.44;;;14.06;100.00
39739;BME280;25422;48.286;8.484;2022-10-24T14:20:34;93967.22;;;13.95;100.00
39739;BME280;25422;48.286;8.484;2022-10-24T14:23:00;93973.84;;;13.85;100.00
39739;BME280;25422;48.286;8.484;2022-10-24T14:25:36;93969.91;;;13.67;100.00
39739;BME280;25422;48.286;8.484;2022-10-24T14:28:13;93984.69;;;13.40;100.00
39739;BME280;25422;48.286;8.484;2022-10-24T14:30:51;93987.59;;;13.23;100.00
39739;BME280;25422;48.286;8.484;2022-10-24T14:33:26;93989.97;;;13.18;100.00
39739;BME280;25422;48.286;8.484;2022-10-24T14:35:53;93989.56;;;13.14;100.00
39739;BME280;25422;48.286;8.484;2022-10-24T14:38:20;93988.19;;;12.97;100.00
39739;BME280;25422;48.286;8.484;2022-10-24T14:40:48;93994.75;;;12.86;100.00
39739;BME280;25422;48.286;8.484;2022-10-24T14:43:24;93990.00;;;12.75;100.00